Time;durP1;ratioP1;P1;durP2;ratioP2;P2;SDS_P1;SDS_P2;PMS_P1;PMS_P2;Temp;Humidity;BMP_temperature;BMP_pressure;BME280_temperature;BME280_humidity;BME280_pressure;Samples;Min_cycle;Max_cycle;Signal;HPM_P1;HPM_P2
2021/08/29 00:01:48;;;;;;;6.22;3.70;;;13.00;99.90;;;;;;5113343;28;20414;-72
2021/08/29 00:04:15;;;;;;;6.80;3.65;;;13.00;99.90;;;;;;5113102;28;20109;-71
2021/08/29 00:06:42;;;;;;;6.75;3.88;;;13.00;99.90;;;;;;5112983;28;20048;-73
2021/08/29 00:09:10;;;;;;;6.15;3.17;;;13.00;99.90;;;;;;5111686;28;20047;-71
2021/08/29 00:11:38;;;;;;;5.85;3.42;;;13.00;99.90;;;;;;5113521;28;20412;-72
2021/08/29 00:14:05;;;;;;;9.20;4.05;;;13.00;99.90;;;;;;5112833;28;20460;-72
2021/08/29 00:16:32;;;;;;;7.13;3.92;;;12.90;99.90;;;;;;5112872;28;20054;-72
2021/08/29 00:19:03;;;;;;;5.88;3.67;;;12.90;99.90;;;;;;5111877;28;20100;-72
2021/08/29 00:21:30;;;;;;;5.88;3.40;;;12.90;99.90;;;;;;5112432;28;20047;-72
2021/08/29 00:23:57;;;;;;;6.45;3.78;;;13.00;99.90;;;;;;5112326;28;20473;-72
2021/08/29 00:26:24;;;;;;;8.90;3.88;;;13.00;99.90;;;;;;5113199;28;20048;-73
2021/08/29 00:28:51;;;;;;;8.73;3.67;;;13.00;99.90;;;;;;5111826;28;20047;-72
2021/08/29 00:31:18;;;;;;;8.88;4.38;;;13.10;99.90;;;;;;5112674;28;20104;-72
2021/08/29 00:33:46;;;;;;;11.20;4.38;;;13.10;99.90;;;;;;5112457;28;20047;-72
2021/08/29 00:36:14;;;;;;;8.93;4.45;;;13.20;99.90;;;;;;5112489;28;20116;-72
2021/08/29 00:38:41;;;;;;;8.55;4.75;;;13.10;99.90;;;;;;5111695;28;20492;-72
2021/08/29 00:41:09;;;;;;;9.48;4.82;;;13.00;99.90;;;;;;5112823;28;20305;-72
2021/08/29 00:43:37;;;;;;;8.82;5.03;;;13.10;99.90;;;;;;5112079;28;20270;-71
2021/08/29 00:46:05;;;;;;;9.32;4.88;;;13.10;99.90;;;;;;5112507;28;20403;-72
2021/08/29 00:48:32;;;;;;;7.53;4.47;;;13.10;99.90;;;;;;5112310;28;20398;-72
2021/08/29 00:51:00;;;;;;;9.18;4.80;;;13.10;99.90;;;;;;5111994;28;20047;-71
2021/08/29 00:53:32;;;;;;;10.70;5.45;;;13.10;99.90;;;;;;5112189;28;20069;-71
2021/08/29 00:55:59;;;;;;;7.20;3.78;;;13.10;99.90;;;;;;5112320;28;20047;-71
2021/08/29 00:58:27;;;;;;;7.88;4.22;;;13.20;99.90;;;;;;5111014;28;20047;-73
2021/08/29 01:00:58;;;;;;;8.65;5.10;;;13.20;99.90;;;;;;5112306;28;20414;-72
2021/08/29 01:03:27;;;;;;;7.35;4.53;;;13.20;99.90;;;;;;5111744;28;20047;-71
2021/08/29 01:06:00;;;;;;;7.93;3.70;;;13.20;99.90;;;;;;5112002;28;20112;-70
2021/08/29 01:08:32;;;;;;;5.13;3.22;;;13.20;99.90;;;;;;5112032;28;20108;-71
2021/08/29 01:11:02;;;;;;;8.57;3.10;;;13.20;99.90;;;;;;5111942;28;20047;-73
2021/08/29 01:13:33;;;;;;;6.57;3.17;;;13.10;99.90;;;;;;5111817;28;20460;-72
2021/08/29 01:16:04;;;;;;;8.50;3.67;;;13.20;99.90;;;;;;5111810;28;20048;-72
2021/08/29 01:18:32;;;;;;;6.00;3.47;;;13.20;99.90;;;;;;5111306;28;20104;-73
2021/08/29 01:21:03;;;;;;;6.38;3.00;;;13.20;99.90;;;;;;5112146;28;20059;-74
2021/08/29 01:23:33;;;;;;;5.85;3.30;;;13.10;99.90;;;;;;5112386;28;20048;-75
2021/08/29 01:26:06;;;;;;;6.57;3.63;;;13.30;99.90;;;;;;5111964;28;20055;-72
2021/08/29 01:28:49;;;;;;;6.35;3.42;;;13.30;99.90;;;;;;5111102;28;20051;-72
2021/08/29 01:31:18;;;;;;;7.32;3.17;;;13.20;99.90;;;;;;5111660;28;20516;-72
2021/08/29 01:33:46;;;;;;;6.80;3.80;;;13.20;99.90;;;;;;5111881;28;20142;-72
2021/08/29 01:36:15;;;;;;;6.47;3.38;;;13.20;99.90;;;;;;5112179;28;20056;-72
2021/08/29 01:38:42;;;;;;;6.75;3.17;;;13.20;99.90;;;;;;5111936;28;20137;-72
2021/08/29 01:41:11;;;;;;;6.93;3.13;;;13.30;99.90;;;;;;5112287;28;20503;-72
2021/08/29 01:43:39;;;;;;;6.82;3.15;;;13.30;99.90;;;;;;5112549;28;20043;-72
2021/08/29 01:46:08;;;;;;;7.97;3.42;;;13.30;99.90;;;;;;5111526;28;20195;-72
2021/08/29 01:48:36;;;;;;;6.57;3.80;;;13.20;99.90;;;;;;5110561;28;20474;-71
2021/08/29 01:51:03;;;;;;;6.70;3.63;;;13.20;99.90;;;;;;5111665;28;20101;-72
2021/08/29 01:53:31;;;;;;;6.15;3.50;;;13.10;99.90;;;;;;5111891;28;20052;-71
2021/08/29 01:55:58;;;;;;;8.63;3.60;;;13.10;99.90;;;;;;5113128;28;20048;-71
2021/08/29 01:58:26;;;;;;;6.13;3.45;;;13.10;99.90;;;;;;5114785;28;20101;-71
2021/08/29 02:00:56;;;;;;;7.53;3.75;;;13.10;99.90;;;;;;5115999;28;20063;-72
2021/08/29 02:03:25;;;;;;;8.13;3.65;;;13.20;99.90;;;;;;5115594;28;20116;-72
2021/08/29 02:05:58;;;;;;;6.85;3.67;;;13.20;99.90;;;;;;5115275;28;20104;-72
2021/08/29 02:08:26;;;;;;;7.50;4.38;;;13.10;99.90;;;;;;5115001;28;20051;-73
2021/08/29 02:10:56;;;;;;;6.80;4.13;;;13.10;99.90;;;;;;5115459;28;20162;-72
2021/08/29 02:13:27;;;;;;;8.90;4.72;;;13.10;99.90;;;;;;5115633;28;20109;-72
2021/08/29 02:16:01;;;;;;;7.68;4.20;;;13.10;99.90;;;;;;5115862;28;20085;-72
2021/08/29 02:18:33;;;;;;;7.50;4.65;;;13.00;99.90;;;;;;5114946;28;20173;-73
2021/08/29 02:21:02;;;;;;;8.20;4.45;;;13.10;99.90;;;;;;5114995;28;20051;-72
2021/08/29 02:23:29;;;;;;;9.55;4.95;;;13.10;99.90;;;;;;5115176;28;20097;-72
2021/08/29 02:25:57;;;;;;;8.00;4.85;;;13.10;99.90;;;;;;5115749;28;20051;-72
2021/08/29 02:28:25;;;;;;;8.07;4.65;;;13.10;99.90;;;;;;5115346;28;20145;-72
2021/08/29 02:30:53;;;;;;;8.63;5.30;;;13.20;99.90;;;;;;5116253;28;20100;-71
2021/08/29 02:33:21;;;;;;;10.43;5.38;;;13.00;99.90;;;;;;5115588;28;20043;-72
2021/08/29 02:35:50;;;;;;;9.13;5.07;;;13.00;99.90;;;;;;5115371;28;20043;-72
2021/08/29 02:38:19;;;;;;;9.25;5.20;;;13.10;99.90;;;;;;5114948;28;20244;-71
2021/08/29 02:40:47;;;;;;;8.10;5.13;;;13.20;99.90;;;;;;5117358;28;20074;-72
2021/08/29 02:43:16;;;;;;;8.93;5.30;;;13.20;99.90;;;;;;5116181;28;20051;-72
2021/08/29 02:45:44;;;;;;;8.27;5.47;;;13.10;99.90;;;;;;5115208;28;20081;-71
2021/08/29 02:48:11;;;;;;;9.35;5.22;;;13.10;99.90;;;;;;5114115;28;20104;-71
2021/08/29 02:50:40;;;;;;;10.30;5.68;;;13.10;99.90;;;;;;5114945;28;20469;-73
2021/08/29 02:53:09;;;;;;;8.93;5.57;;;13.00;99.90;;;;;;5114952;28;20047;-72
2021/08/29 02:55:38;;;;;;;9.55;5.38;;;13.00;99.90;;;;;;5114704;28;20048;-72
2021/08/29 02:58:07;;;;;;;10.25;4.75;;;13.00;99.90;;;;;;5114061;28;20047;-71
2021/08/29 03:00:35;;;;;;;8.13;4.63;;;13.10;99.90;;;;;;5114586;28;20047;-72
2021/08/29 03:03:02;;;;;;;8.50;5.13;;;13.10;99.90;;;;;;5113718;28;20491;-72
2021/08/29 03:05:29;;;;;;;10.65;4.93;;;13.10;99.90;;;;;;5114579;28;20108;-72
2021/08/29 03:07:57;;;;;;;7.68;4.85;;;13.10;99.90;;;;;;5113004;28;20048;-72
2021/08/29 03:10:26;;;;;;;11.80;5.18;;;13.20;99.90;;;;;;5114535;28;20121;-72
2021/08/29 03:12:54;;;;;;;10.20;5.28;;;13.10;99.90;;;;;;5113574;28;20059;-71
2021/08/29 03:15:21;;;;;;;7.65;4.90;;;13.20;99.90;;;;;;5114578;28;20058;-71
2021/08/29 03:17:48;;;;;;;10.00;5.57;;;13.20;99.90;;;;;;5112983;28;20065;-72
2021/08/29 03:20:16;;;;;;;9.77;5.30;;;13.30;99.90;;;;;;5115726;28;20053;-72
2021/08/29 03:22:44;;;;;;;9.18;5.53;;;13.30;99.90;;;;;;5116209;28;20071;-71
2021/08/29 03:25:12;;;;;;;8.68;4.90;;;13.20;99.90;;;;;;5116422;28;20047;-71
2021/08/29 03:27:41;;;;;;;9.85;5.10;;;13.20;99.90;;;;;;5115499;28;20051;-71
2021/08/29 03:30:09;;;;;;;10.05;5.60;;;13.20;99.90;;;;;;5115871;28;20051;-71
2021/08/29 03:32:38;;;;;;;8.63;5.60;;;13.10;99.90;;;;;;5117456;28;20100;-72
2021/08/29 03:35:07;;;;;;;13.88;5.60;;;13.10;99.90;;;;;;5116820;28;20048;-71
2021/08/29 03:37:34;;;;;;;10.43;5.40;;;13.10;99.90;;;;;;5114585;28;20047;-72
2021/08/29 03:40:02;;;;;;;8.73;5.43;;;13.00;99.90;;;;;;5115440;28;20056;-71
2021/08/29 03:42:31;;;;;;;10.65;6.00;;;13.00;99.90;;;;;;5114506;28;20044;-71
2021/08/29 03:45:00;;;;;;;10.23;6.15;;;13.10;99.90;;;;;;5114915;28;20473;-73
2021/08/29 03:47:28;;;;;;;11.38;6.00;;;13.00;99.90;;;;;;5114164;28;20052;-72
2021/08/29 03:49:56;;;;;;;10.23;5.68;;;13.00;99.90;;;;;;5114499;28;20623;-71
2021/08/29 03:52:23;;;;;;;9.48;6.03;;;13.00;99.90;;;;;;5114720;28;20069;-71
2021/08/29 03:54:50;;;;;;;10.07;6.50;;;13.00;99.90;;;;;;5113767;28;20052;-71
2021/08/29 03:57:17;;;;;;;9.63;6.45;;;13.00;99.90;;;;;;5113270;28;20071;-71
2021/08/29 03:59:45;;;;;;;10.30;5.68;;;13.00;99.90;;;;;;5113115;28;20047;-71
2021/08/29 04:02:14;;;;;;;8.95;5.43;;;13.10;99.90;;;;;;5113367;28;20396;-71
2021/08/29 04:04:41;;;;;;;8.93;5.78;;;13.10;99.90;;;;;;5114025;28;20044;-71
2021/08/29 04:07:10;;;;;;;10.57;5.90;;;13.10;99.90;;;;;;5113571;28;20487;-72
2021/08/29 04:09:38;;;;;;;10.18;5.82;;;13.10;99.90;;;;;;5112768;28;20049;-72
2021/08/29 04:12:06;;;;;;;8.30;5.13;;;13.10;99.90;;;;;;5113553;28;20134;-72
2021/08/29 04:14:33;;;;;;;8.52;5.47;;;13.10;99.90;;;;;;5114775;28;20054;-71
2021/08/29 04:17:00;;;;;;;9.13;5.78;;;13.10;99.90;;;;;;5115670;28;20039;-71
2021/08/29 04:19:30;;;;;;;12.65;6.05;;;13.10;99.90;;;;;;5114934;28;20055;-71
2021/08/29 04:21:58;;;;;;;12.55;6.78;;;13.00;99.90;;;;;;5115226;28;20096;-72
2021/08/29 04:24:25;;;;;;;11.40;6.30;;;13.00;99.90;;;;;;5114096;28;20052;-71
2021/08/29 04:26:52;;;;;;;9.65;6.70;;;13.00;99.90;;;;;;5113556;28;20043;-71
2021/08/29 04:29:20;;;;;;;9.00;6.32;;;13.00;99.90;;;;;;5113145;28;20120;-72
2021/08/29 04:31:53;;;;;;;10.85;6.18;;;12.90;99.90;;;;;;5112833;28;20043;-71
2021/08/29 04:34:20;;;;;;;9.38;6.13;;;13.00;99.90;;;;;;5113030;28;20056;-71
2021/08/29 04:36:49;;;;;;;13.45;6.93;;;13.00;99.90;;;;;;5112876;28;20103;-72
2021/08/29 04:39:16;;;;;;;13.57;6.38;;;13.00;99.90;;;;;;5112300;28;20130;-71
2021/08/29 04:41:43;;;;;;;13.52;6.35;;;13.10;99.90;;;;;;5113234;28;20048;-71
2021/08/29 04:44:11;;;;;;;10.38;5.85;;;13.10;99.90;;;;;;5112692;28;20043;-70
2021/08/29 04:46:38;;;;;;;9.75;6.13;;;13.10;99.90;;;;;;5112619;28;20469;-71
2021/08/29 04:49:05;;;;;;;16.38;7.13;;;13.10;99.90;;;;;;5112029;28;20051;-71
2021/08/29 04:51:33;;;;;;;9.50;5.75;;;13.10;99.90;;;;;;5112122;28;20063;-71
2021/08/29 04:54:01;;;;;;;12.70;6.68;;;13.10;99.90;;;;;;5112253;28;20459;-72
2021/08/29 04:56:28;;;;;;;11.57;6.57;;;13.20;99.90;;;;;;5112070;28;20043;-71
2021/08/29 04:58:55;;;;;;;15.35;6.85;;;13.20;99.90;;;;;;5111759;28;20424;-71
2021/08/29 05:01:26;;;;;;;8.25;5.47;;;13.20;99.90;;;;;;5112536;28;20051;-71
2021/08/29 05:03:53;;;;;;;11.80;6.57;;;13.30;99.90;;;;;;5112614;28;20063;-71
2021/08/29 05:06:21;;;;;;;11.25;6.32;;;13.30;99.90;;;;;;5112198;28;20043;-74
2021/08/29 05:08:48;;;;;;;11.32;7.18;;;13.30;99.90;;;;;;5111591;28;20055;-71
2021/08/29 05:11:17;;;;;;;8.68;5.72;;;13.30;99.90;;;;;;5112378;28;20507;-70
2021/08/29 05:13:44;;;;;;;8.80;5.90;;;13.40;99.90;;;;;;5112222;28;20044;-71
2021/08/29 05:16:11;;;;;;;8.80;5.72;;;13.40;99.90;;;;;;5112255;28;20055;-72
2021/08/29 05:18:38;;;;;;;9.15;5.35;;;13.40;99.90;;;;;;5111497;28;20056;-72
2021/08/29 05:21:05;;;;;;;10.82;5.88;;;13.50;99.90;;;;;;5112030;28;20043;-71
2021/08/29 05:23:32;;;;;;;12.13;5.88;;;13.50;99.90;;;;;;5111671;28;20089;-72
2021/08/29 05:25:59;;;;;;;8.73;4.85;;;13.50;99.90;;;;;;5111946;28;20047;-71
2021/08/29 05:28:28;;;;;;;10.75;5.80;;;13.60;99.90;;;;;;5111526;28;20058;-71
2021/08/29 05:30:55;;;;;;;8.82;5.65;;;13.70;99.90;;;;;;5113963;28;20465;-72
2021/08/29 05:33:22;;;;;;;8.88;5.38;;;13.80;99.90;;;;;;5118550;28;20063;-72
2021/08/29 05:35:49;;;;;;;10.75;5.63;;;13.70;99.90;;;;;;5118674;28;20047;-71
2021/08/29 05:38:16;;;;;;;9.20;5.30;;;13.70;99.90;;;;;;5116559;28;20116;-71
2021/08/29 05:40:43;;;;;;;11.30;5.55;;;13.70;99.90;;;;;;5119147;28;20048;-73
2021/08/29 05:43:10;;;;;;;9.30;5.00;;;13.80;99.90;;;;;;5117076;28;20476;-72
2021/08/29 05:45:39;;;;;;;9.15;5.78;;;13.80;99.90;;;;;;5116131;28;20051;-71
2021/08/29 05:48:06;;;;;;;7.60;4.90;;;13.80;99.90;;;;;;5115107;28;20469;-71
2021/08/29 05:50:33;;;;;;;8.52;5.20;;;13.80;99.90;;;;;;5116143;28;20119;-73
2021/08/29 05:53:00;;;;;;;10.13;5.65;;;13.80;99.90;;;;;;5116255;28;20096;-71
2021/08/29 05:55:27;;;;;;;9.60;5.43;;;13.90;99.90;;;;;;5115443;28;20101;-70
2021/08/29 05:57:54;;;;;;;8.07;5.22;;;13.90;99.90;;;;;;5114627;28;20052;-71
2021/08/29 06:00:22;;;;;;;12.15;5.75;;;13.90;99.90;;;;;;5115555;28;20499;-71
2021/08/29 06:02:50;;;;;;;9.05;5.85;;;13.90;99.90;;;;;;5115763;28;20474;-71
2021/08/29 06:05:17;;;;;;;11.13;6.30;;;13.90;99.90;;;;;;5115612;28;20047;-72
2021/08/29 06:07:44;;;;;;;9.75;5.47;;;13.90;99.90;;;;;;5114679;28;20129;-72
2021/08/29 06:10:12;;;;;;;10.50;5.30;;;14.00;99.90;;;;;;5115563;28;20052;-73
2021/08/29 06:12:39;;;;;;;9.15;5.10;;;14.00;99.90;;;;;;5115049;28;20124;-71
2021/08/29 06:15:08;;;;;;;7.20;4.72;;;14.10;99.90;;;;;;5115219;28;20050;-71
2021/08/29 06:17:35;;;;;;;8.85;5.20;;;14.00;99.90;;;;;;5113957;28;20048;-72
2021/08/29 06:20:04;;;;;;;11.18;5.63;;;14.10;99.90;;;;;;5114948;28;20052;-72
2021/08/29 06:22:31;;;;;;;9.98;6.53;;;14.10;99.90;;;;;;5115297;28;20477;-71
2021/08/29 06:24:58;;;;;;;11.55;7.20;;;14.20;99.90;;;;;;5114326;28;20048;-72
2021/08/29 06:27:25;;;;;;;10.35;6.53;;;14.10;99.90;;;;;;5114676;28;20055;-72
2021/08/29 06:29:52;;;;;;;10.63;6.55;;;14.20;99.90;;;;;;5114435;28;20047;-72
2021/08/29 06:32:20;;;;;;;11.02;6.22;;;14.30;99.90;;;;;;5114518;28;20051;-72
2021/08/29 06:34:47;;;;;;;8.77;5.88;;;14.40;99.90;;;;;;5115050;28;20052;-72
2021/08/29 06:37:15;;;;;;;9.32;5.13;;;14.60;99.90;;;;;;5114306;28;20044;-73
2021/08/29 06:39:42;;;;;;;9.18;5.18;;;14.60;99.90;;;;;;5113317;28;20073;-72
2021/08/29 06:42:09;;;;;;;8.35;5.50;;;14.70;99.90;;;;;;5112500;28;20044;-72
2021/08/29 06:44:36;;;;;;;9.48;5.35;;;14.70;99.90;;;;;;5114232;28;20059;-72
2021/08/29 06:47:04;;;;;;;8.77;5.80;;;14.80;99.90;;;;;;5114035;28;20286;-71
2021/08/29 06:49:31;;;;;;;8.68;5.47;;;14.80;99.90;;;;;;5113272;28;20048;-72
2021/08/29 06:51:58;;;;;;;8.93;5.30;;;14.80;99.90;;;;;;5113574;28;20106;-71
2021/08/29 06:54:26;;;;;;;7.43;5.05;;;14.90;99.90;;;;;;5113719;28;20052;-72
2021/08/29 06:56:53;;;;;;;8.35;5.57;;;15.00;99.90;;;;;;5113594;28;20089;-72
2021/08/29 06:59:20;;;;;;;9.55;5.72;;;15.10;99.90;;;;;;5112860;28;20051;-73
2021/08/29 07:01:48;;;;;;;10.48;6.20;;;15.10;99.90;;;;;;5113505;28;20047;-72
2021/08/29 07:04:15;;;;;;;9.35;5.53;;;15.30;99.90;;;;;;5113331;28;20375;-71
2021/08/29 07:06:42;;;;;;;8.32;5.05;;;15.20;99.90;;;;;;5113225;28;20047;-71
2021/08/29 07:09:09;;;;;;;9.35;5.15;;;15.20;99.90;;;;;;5112682;28;20051;-71
2021/08/29 07:11:37;;;;;;;8.40;4.43;;;15.30;99.90;;;;;;5113240;28;20104;-72
2021/08/29 07:14:04;;;;;;;7.68;4.28;;;15.40;99.90;;;;;;5113765;28;20051;-72
2021/08/29 07:16:32;;;;;;;6.43;3.95;;;15.30;99.90;;;;;;5113555;28;20557;-71
2021/08/29 07:18:59;;;;;;;7.38;3.88;;;15.40;99.90;;;;;;5112327;28;20393;-73
2021/08/29 07:21:26;;;;;;;4.65;2.90;;;15.50;99.90;;;;;;5113217;28;20116;-71
2021/08/29 07:23:53;;;;;;;4.82;2.67;;;15.70;99.90;;;;;;5113223;28;20043;-73
2021/08/29 07:26:20;;;;;;;5.50;2.72;;;15.80;99.90;;;;;;5112864;28;20097;-72
2021/08/29 07:28:48;;;;;;;4.75;2.35;;;15.90;99.90;;;;;;5112419;28;20047;-72
2021/08/29 07:31:15;;;;;;;3.55;2.08;;;15.90;99.90;;;;;;5112212;28;20043;-71
2021/08/29 07:33:42;;;;;;;3.13;1.83;;;15.80;99.90;;;;;;5112144;28;20469;-73
2021/08/29 07:36:09;;;;;;;4.13;2.10;;;15.90;99.90;;;;;;5112580;28;20533;-71
2021/08/29 07:38:36;;;;;;;3.97;1.70;;;16.00;99.90;;;;;;5111754;28;20083;-71
2021/08/29 07:41:04;;;;;;;1.73;1.30;;;16.10;99.90;;;;;;5112450;28;20516;-72
2021/08/29 07:43:31;;;;;;;3.70;1.40;;;16.10;99.90;;;;;;5112484;28;20422;-72
2021/08/29 07:45:59;;;;;;;2.47;1.35;;;16.10;99.90;;;;;;5111986;28;20056;-72
2021/08/29 07:48:26;;;;;;;2.22;1.38;;;16.20;99.90;;;;;;5111564;28;20048;-71
2021/08/29 07:50:53;;;;;;;1.48;1.10;;;16.20;99.90;;;;;;5112019;28;20101;-71
2021/08/29 07:53:20;;;;;;;1.75;1.20;;;16.20;99.90;;;;;;5111531;28;20052;-72
2021/08/29 07:55:47;;;;;;;2.30;1.17;;;16.20;99.90;;;;;;5112090;28;20051;-72
2021/08/29 07:58:14;;;;;;;2.70;1.58;;;16.40;99.90;;;;;;5112228;28;20112;-71
2021/08/29 08:00:41;;;;;;;2.13;1.35;;;16.40;99.90;;;;;;5112886;28;20047;-74
2021/08/29 08:03:09;;;;;;;1.65;1.20;;;16.40;99.90;;;;;;5111977;28;20609;-72
2021/08/29 08:05:37;;;;;;;2.00;1.10;;;16.60;99.90;;;;;;5112122;28;20047;-72
2021/08/29 08:08:04;;;;;;;2.05;1.20;;;16.60;99.90;;;;;;5111607;28;20047;-74
2021/08/29 08:10:32;;;;;;;2.00;1.23;;;16.70;99.90;;;;;;5111820;28;20056;-73
2021/08/29 08:12:59;;;;;;;1.90;1.25;;;16.80;99.90;;;;;;5111608;28;20056;-72
2021/08/29 08:15:26;;;;;;;5.10;1.60;;;16.70;99.90;;;;;;5111909;28;20052;-73
2021/08/29 08:17:53;;;;;;;1.48;0.90;;;16.40;99.90;;;;;;5112175;28;20051;-72
2021/08/29 08:20:22;;;;;;;2.00;1.08;;;16.60;99.90;;;;;;5111368;28;20044;-72
2021/08/29 08:22:49;;;;;;;1.15;1.00;;;16.60;99.90;;;;;;5111814;28;20507;-73
2021/08/29 08:25:16;;;;;;;3.53;1.17;;;16.80;99.90;;;;;;5111875;28;20090;-77
2021/08/29 08:27:43;;;;;;;1.38;0.98;;;16.90;99.90;;;;;;5111419;28;20097;-77
2021/08/29 08:30:12;;;;;;;1.65;1.00;;;16.80;99.90;;;;;;5111866;28;20435;-72
2021/08/29 08:32:39;;;;;;;1.70;1.00;;;17.00;99.90;;;;;;5111356;28;20487;-72
2021/08/29 08:35:06;;;;;;;3.25;1.00;;;17.10;99.90;;;;;;5111464;28;20120;-73
2021/08/29 08:37:35;;;;;;;1.20;0.80;;;17.20;99.90;;;;;;5111196;28;20047;-73
2021/08/29 08:40:02;;;;;;;1.17;0.88;;;17.30;99.90;;;;;;5111529;28;20043;-71
2021/08/29 08:42:29;;;;;;;1.70;1.15;;;17.50;99.90;;;;;;5111639;28;20104;-72
2021/08/29 08:44:56;;;;;;;1.42;0.70;;;17.50;99.90;;;;;;5111249;28;20054;-72
2021/08/29 08:47:24;;;;;;;1.88;1.13;;;17.50;99.90;;;;;;5110371;28;20047;-73
2021/08/29 08:49:56;;;;;;;1.92;1.33;;;17.30;99.90;;;;;;5110850;28;20048;-73
2021/08/29 08:52:27;;;;;;;2.58;1.50;;;17.30;99.90;;;;;;5111360;28;20411;-71
2021/08/29 08:54:59;;;;;;;2.53;1.50;;;17.50;99.90;;;;;;5109986;28;20043;-72
2021/08/29 08:57:26;;;;;;;3.67;1.20;;;17.60;99.90;;;;;;5109797;28;20051;-71
2021/08/29 08:59:53;;;;;;;1.23;0.85;;;17.60;99.90;;;;;;5110045;28;20048;-72
2021/08/29 09:02:21;;;;;;;1.25;0.80;;;17.80;99.90;;;;;;5110471;28;20043;-73
2021/08/29 09:04:49;;;;;;;1.40;0.80;;;18.00;99.90;;;;;;5110890;28;20056;-73
2021/08/29 09:07:16;;;;;;;1.95;0.85;;;18.00;99.90;;;;;;5110511;28;20048;-72
2021/08/29 09:09:43;;;;;;;1.00;0.60;;;18.10;99.90;;;;;;5110259;28;20100;-72
2021/08/29 09:12:12;;;;;;;0.75;0.70;;;18.30;99.90;;;;;;5109851;28;20043;-72
2021/08/29 09:14:41;;;;;;;1.95;0.70;;;18.70;99.90;;;;;;5109559;28;20066;-72
2021/08/29 09:17:28;;;;;;;1.42;0.65;;;18.70;99.90;;;;;;5109374;28;20046;-72
2021/08/29 09:20:16;;;;;;;1.25;0.65;;;18.70;99.90;;;;;;5109368;28;20048;-72
2021/08/29 09:22:43;;;;;;;0.98;0.60;;;18.80;99.90;;;;;;5109053;28;20453;-71
2021/08/29 09:25:15;;;;;;;1.35;0.65;;;18.80;99.90;;;;;;5109151;28;20044;-70
2021/08/29 09:27:45;;;;;;;0.90;0.70;;;18.80;99.90;;;;;;5109589;28;20472;-70
2021/08/29 09:30:13;;;;;;;0.50;0.50;;;18.80;99.90;;;;;;5109269;28;20048;-70
2021/08/29 09:32:48;;;;;;;0.65;0.38;;;19.10;99.90;;;;;;5108972;28;20506;-70
2021/08/29 09:35:15;;;;;;;0.77;0.60;;;19.60;99.90;;;;;;5108828;28;20451;-71
2021/08/29 09:37:43;;;;;;;0.75;0.60;;;19.80;99.90;;;;;;5108537;28;20499;-71
2021/08/29 09:40:14;;;;;;;0.70;0.60;;;19.90;99.90;;;;;;5108869;28;20047;-69
2021/08/29 09:42:44;;;;;;;1.30;0.68;;;20.50;99.90;;;;;;5108986;28;20094;-69
2021/08/29 09:45:19;;;;;;;0.50;0.50;;;21.20;99.90;;;;;;5109338;28;20097;-69
2021/08/29 09:47:46;;;;;;;0.60;0.45;;;21.60;99.90;;;;;;5108153;28;20048;-69
2021/08/29 09:50:15;;;;;;;0.65;0.50;;;21.80;99.90;;;;;;5109110;28;20113;-69
2021/08/29 09:52:42;;;;;;;0.55;0.43;;;22.10;99.90;;;;;;5109106;28;20054;-70
2021/08/29 09:55:11;;;;;;;0.50;0.50;;;21.70;99.90;;;;;;5108982;28;20322;-69
2021/08/29 09:57:38;;;;;;;0.95;0.73;;;21.30;99.90;;;;;;5108057;28;20087;-70
2021/08/29 10:00:10;;;;;;;1.65;0.50;;;20.80;99.90;;;;;;5108935;28;20496;-70
2021/08/29 10:02:37;;;;;;;1.67;0.47;;;20.70;99.90;;;;;;5109147;28;20090;-70
2021/08/29 10:05:15;;;;;;;0.50;0.50;;;20.30;99.90;;;;;;5108876;28;20048;-70
2021/08/29 10:08:00;;;;;;;0.45;0.35;;;20.20;99.90;;;;;;5108424;28;20051;-70
2021/08/29 10:10:29;;;;;;;0.50;0.50;;;20.20;99.90;;;;;;5109136;28;20091;-70
2021/08/29 10:12:56;;;;;;;0.60;0.50;;;20.40;99.90;;;;;;5108952;28;20055;-70
2021/08/29 10:15:25;;;;;;;1.10;0.57;;;19.70;99.90;;;;;;5109200;28;20104;-71
2021/08/29 10:17:55;;;;;;;0.50;0.43;;;19.70;99.90;;;;;;5110983;28;20564;-71
2021/08/29 10:20:24;;;;;;;1.95;1.33;;;19.90;99.90;;;;;;5112577;28;20104;-70
2021/08/29 10:22:52;;;;;;;0.40;0.40;;;19.90;99.90;;;;;;5113383;28;20052;-72
2021/08/29 10:25:20;;;;;;;0.98;0.57;;;19.90;99.90;;;;;;5112187;28;20088;-72
2021/08/29 10:27:55;;;;;;;0.50;0.40;;;19.80;99.90;;;;;;5111927;28;20109;-72
2021/08/29 10:30:25;;;;;;;1.20;0.50;;;19.80;99.90;;;;;;5112230;28;20047;-72
2021/08/29 10:32:58;;;;;;;1.38;0.40;;;19.40;99.90;;;;;;5112369;28;20054;-72
2021/08/29 10:35:25;;;;;;;1.00;0.45;;;19.20;99.90;;;;;;5113670;28;20051;-74
2021/08/29 10:37:53;;;;;;;0.50;0.50;;;19.00;99.90;;;;;;5112359;28;20047;-72
2021/08/29 10:40:20;;;;;;;0.43;0.40;;;19.00;99.90;;;;;;5113249;28;20052;-72
2021/08/29 10:42:46;;;;;;;1.90;0.52;;;19.10;99.90;;;;;;5113039;28;20112;-73
2021/08/29 10:45:14;;;;;;;0.55;0.40;;;18.90;99.90;;;;;;5112808;28;20419;-73
2021/08/29 10:47:45;;;;;;;0.57;0.40;;;18.70;99.90;;;;;;5112255;28;20092;-75
2021/08/29 10:50:17;;;;;;;1.00;0.40;;;18.70;99.90;;;;;;5112649;28;20044;-73
2021/08/29 10:52:45;;;;;;;0.70;0.55;;;18.50;99.90;;;;;;5112172;28;20140;-73
2021/08/29 10:55:15;;;;;;;0.80;0.60;;;18.40;99.90;;;;;;5112766;28;20079;-73
2021/08/29 10:57:43;;;;;;;0.55;0.47;;;18.30;99.90;;;;;;5112011;28;20496;-72
2021/08/29 11:00:13;;;;;;;1.45;0.43;;;18.30;99.90;;;;;;5113276;28;20055;-72
2021/08/29 11:02:42;;;;;;;0.47;0.40;;;18.10;99.90;;;;;;5113735;28;20522;-72
2021/08/29 11:05:11;;;;;;;0.90;0.50;;;18.00;99.90;;;;;;5113335;28;20052;-73
2021/08/29 11:07:50;;;;;;;1.23;0.30;;;18.00;99.90;;;;;;5111613;28;20093;-72
2021/08/29 11:10:45;;;;;;;1.27;0.82;;;18.00;99.90;;;;;;5112575;28;20052;-71
2021/08/29 11:13:41;;;;;;;1.02;0.60;;;18.00;99.90;;;;;;5111938;28;20054;-72
2021/08/29 11:16:23;;;;;;;1.50;0.57;;;18.00;99.90;;;;;;5112794;28;20431;-73
2021/08/29 11:19:14;;;;;;;1.45;0.75;;;18.00;99.90;;;;;;5111658;28;20087;-72
2021/08/29 11:22:13;;;;;;;0.60;0.50;;;18.30;99.90;;;;;;5111117;28;20515;-72
2021/08/29 11:24:56;;;;;;;1.52;0.52;;;18.40;99.90;;;;;;5112410;28;20051;-72
2021/08/29 11:28:00;;;;;;;0.77;0.45;;;18.10;99.90;;;;;;5112073;28;20066;-71
2021/08/29 11:30:40;;;;;;;0.75;0.55;;;18.20;99.90;;;;;;5070064;28;20101;-71
2021/08/29 11:33:09;;;;;;;1.23;0.70;;;18.10;99.90;;;;;;5112390;28;20066;-74
2021/08/29 11:35:38;;;;;;;1.50;0.68;;;18.10;99.90;;;;;;5112506;28;20105;-72
2021/08/29 11:38:09;;;;;;;2.42;0.80;;;18.00;99.90;;;;;;5111531;28;20055;-72
2021/08/29 11:40:52;;;;;;;1.50;0.80;;;17.70;99.90;;;;;;5112548;28;20051;-72
2021/08/29 11:43:22;;;;;;;1.48;0.95;;;17.60;99.90;;;;;;5112728;28;20109;-72
2021/08/29 11:45:59;;;;;;;1.77;1.00;;;17.30;99.90;;;;;;5112638;28;20055;-72
2021/08/29 11:48:26;;;;;;;;;;;17.20;99.90;;;;;;5112222;28;20047;-74
2021/08/29 11:50:53;;;;;;;;;;;17.00;99.90;;;;;;5111821;28;19924;-73
2021/08/29 11:53:21;;;;;;;1.95;1.00;;;16.70;99.90;;;;;;5112504;28;19958;-72
2021/08/29 11:55:55;;;;;;;3.38;0.90;;;16.50;99.90;;;;;;5113087;28;20090;-71
2021/08/29 11:58:23;;;;;;;1.38;0.80;;;16.20;99.90;;;;;;5112914;28;20051;-72
2021/08/29 12:00:52;;;;;;;0.70;0.70;;;16.00;99.90;;;;;;5113579;28;20051;-72
2021/08/29 12:03:30;;;;;;;2.20;1.00;;;16.00;99.90;;;;;;5113702;28;20058;-73
2021/08/29 12:06:00;;;;;;;2.28;1.10;;;15.90;99.90;;;;;;5113165;28;20047;-73
2021/08/29 12:08:44;;;;;;;1.65;0.90;;;16.00;99.90;;;;;;5112808;28;20101;-71
2021/08/29 12:11:14;;;;;;;3.08;0.88;;;16.00;99.90;;;;;;5113469;28;20568;-71
2021/08/29 12:13:41;;;;;;;1.02;0.90;;;15.90;99.90;;;;;;5111743;28;20043;-70
2021/08/29 12:16:09;;;;;;;3.22;1.10;;;16.00;99.90;;;;;;5112555;28;20047;-71
2021/08/29 12:18:38;;;;;;;1.33;0.93;;;15.90;99.90;;;;;;5112135;28;20043;-72
2021/08/29 12:21:07;;;;;;;1.05;0.90;;;16.00;99.90;;;;;;5112051;28;20496;-72
2021/08/29 12:23:35;;;;;;;0.70;0.70;;;16.00;99.90;;;;;;5113122;28;20109;-72
2021/08/29 12:26:05;;;;;;;1.63;0.95;;;16.00;99.90;;;;;;5114506;28;20549;-72
2021/08/29 12:28:34;;;;;;;1.70;0.98;;;16.00;99.90;;;;;;5112368;28;20088;-74
2021/08/29 12:31:02;;;;;;;3.15;1.52;;;16.00;99.90;;;;;;5113068;28;20100;-73
2021/08/29 12:33:30;;;;;;;1.33;1.10;;;16.00;99.90;;;;;;5112281;28;20058;-72
2021/08/29 12:36:00;;;;;;;1.50;1.00;;;16.10;99.90;;;;;;5112737;28;20047;-74
2021/08/29 12:38:29;;;;;;;2.00;1.10;;;16.20;99.90;;;;;;5111409;28;20507;-71
2021/08/29 12:40:58;;;;;;;2.05;1.25;;;16.20;99.90;;;;;;5112248;28;20104;-71
2021/08/29 12:43:27;;;;;;;3.60;1.25;;;16.20;99.90;;;;;;5113330;28;20052;-71
2021/08/29 12:45:56;;;;;;;1.83;1.08;;;16.20;99.90;;;;;;5112775;28;20054;-71
2021/08/29 12:48:24;;;;;;;5.20;1.65;;;16.20;99.90;;;;;;5112866;28;20059;-73
2021/08/29 12:50:54;;;;;;;1.27;1.17;;;16.10;99.90;;;;;;5112852;28;20462;-71
2021/08/29 12:53:25;;;;;;;2.20;1.35;;;16.10;99.90;;;;;;5112919;28;20051;-71
2021/08/29 12:55:53;;;;;;;1.70;1.13;;;16.20;99.90;;;;;;5112095;28;20555;-73